createdAt,value
2022-07-31T00:00:24.523Z,77.34
2022-07-31T00:02:52.552Z,76.72
2022-07-31T00:05:20.484Z,76.53
2022-07-31T00:07:48.445Z,76.33
2022-07-31T00:10:18.192Z,76.90
2022-07-31T00:12:46.197Z,77.98
2022-07-31T00:15:14.300Z,77.00
2022-07-31T00:17:43.481Z,76.61
2022-07-31T00:20:14.336Z,77.56
2022-07-31T00:22:43.135Z,76.40
2022-07-31T00:25:12.123Z,76.66
2022-07-31T00:27:42.046Z,77.59
2022-07-31T00:30:12.931Z,77.77
2022-07-31T00:32:41.944Z,77.46
2022-07-31T00:35:12.425Z,77.30
2022-07-31T00:37:41.766Z,77.39
2022-07-31T00:40:13.221Z,77.26
2022-07-31T00:42:42.596Z,77.26
2022-07-31T00:45:13.570Z,77.23
2022-07-31T00:47:42.785Z,77.17
2022-07-31T00:50:11.843Z,77.21
2022-07-31T00:52:40.076Z,77.21
2022-07-31T00:55:09.312Z,77.77
2022-07-31T00:57:38.584Z,77.70
2022-07-31T01:00:09.802Z,78.06
2022-07-31T01:02:38.440Z,77.89
2022-07-31T01:05:14.913Z,77.74
2022-07-31T01:07:42.721Z,77.27
2022-07-31T01:10:15.152Z,76.83
2022-07-31T01:12:53.991Z,76.31
2022-07-31T01:15:24.620Z,76.30
2022-07-31T01:17:54.083Z,76.32
2022-07-31T01:20:22.501Z,77.05
2022-07-31T01:23:04.025Z,76.43
2022-07-31T01:25:55.223Z,76.42
2022-07-31T01:28:54.865Z,76.72
2022-07-31T01:31:35.203Z,77.23
2022-07-31T01:34:09.830Z,76.68
2022-07-31T01:36:40.790Z,76.01
2022-07-31T01:39:09.137Z,75.78
2022-07-31T01:41:44.260Z,75.72
2022-07-31T01:44:18.081Z,76.02
2022-07-31T01:46:48.770Z,75.88
2022-07-31T01:49:20.037Z,76.11
2022-07-31T01:51:49.813Z,76.38
2022-07-31T01:54:21.212Z,76.39
2022-07-31T01:56:51.063Z,76.13
2022-07-31T01:59:22.725Z,76.48
2022-07-31T02:02:10.129Z,76.59
2022-07-31T02:04:39.915Z,76.78
2022-07-31T02:07:08.207Z,77.31
2022-07-31T02:09:58.039Z,78.50
2022-07-31T02:12:33.491Z,78.17
2022-07-31T02:15:07.659Z,78.06
2022-07-31T02:17:38.573Z,78.04
2022-07-31T02:20:26.976Z,78.51
2022-07-31T02:22:57.164Z,79.96
2022-07-31T02:25:25.688Z,79.81
2022-07-31T02:27:58.526Z,79.97
2022-07-31T02:30:38.318Z,79.68
2022-07-31T02:33:13.739Z,79.33
2022-07-31T02:35:45.615Z,78.94
2022-07-31T02:38:23.287Z,78.84
2022-07-31T02:40:57.405Z,78.14
2022-07-31T02:43:26.806Z,78.11
2022-07-31T02:45:59.403Z,77.98
2022-07-31T02:48:28.528Z,78.28
2022-07-31T02:51:00.808Z,78.77
2022-07-31T02:53:30.699Z,78.57
2022-07-31T02:56:04.513Z,78.46
2022-07-31T02:58:34.860Z,78.30
2022-07-31T03:01:06.190Z,78.18
2022-07-31T03:03:35.662Z,78.44
2022-07-31T03:06:03.731Z,78.49
2022-07-31T03:08:31.749Z,78.91
2022-07-31T03:11:04.745Z,78.70
2022-07-31T03:13:35.947Z,78.66
2022-07-31T03:16:06.881Z,78.81
2022-07-31T03:18:35.594Z,78.98
2022-07-31T03:21:03.656Z,79.14
2022-07-31T03:23:36.428Z,79.22
2022-07-31T03:26:10.252Z,79.44
2022-07-31T03:28:38.223Z,79.68
2022-07-31T03:31:08.828Z,79.19
2022-07-31T03:33:38.951Z,78.98
2022-07-31T03:36:09.527Z,79.51
2022-07-31T03:38:41.467Z,79.40
2022-07-31T03:41:23.303Z,78.98
2022-07-31T03:43:51.893Z,79.24
2022-07-31T03:46:25.101Z,79.55
2022-07-31T03:48:53.500Z,79.48
2022-07-31T03:51:23.281Z,79.55
2022-07-31T03:53:52.980Z,79.54
2022-07-31T03:56:49.490Z,79.55
2022-07-31T03:59:19.790Z,79.72
2022-07-31T04:01:57.420Z,79.39
2022-07-31T04:04:49.379Z,79.00
2022-07-31T04:07:17.842Z,78.92
2022-07-31T04:09:45.846Z,78.80
2022-07-31T04:12:16.090Z,78.65
2022-07-31T04:14:44.339Z,78.91
2022-07-31T04:17:14.962Z,78.83
2022-07-31T04:19:43.045Z,79.06
2022-07-31T04:22:11.153Z,79.37
2022-07-31T04:24:40.139Z,79.85
2022-07-31T04:27:48.576Z,79.57
2022-07-31T04:30:18.013Z,79.64
2022-07-31T04:32:49.052Z,79.36
2022-07-31T04:35:22.652Z,79.33
2022-07-31T04:37:50.727Z,79.39
2022-07-31T04:40:20.188Z,79.21
2022-07-31T04:42:48.127Z,78.97
2022-07-31T04:45:16.158Z,78.69
2022-07-31T04:47:44.156Z,78.35
2022-07-31T04:50:13.576Z,78.60
2022-07-31T04:52:56.146Z,78.52
2022-07-31T04:55:25.575Z,79.20
2022-07-31T04:57:53.889Z,79.10
2022-07-31T05:00:22.160Z,79.18
2022-07-31T05:02:50.334Z,78.70
2022-07-31T05:05:20.288Z,78.36
2022-07-31T05:07:48.786Z,78.30
2022-07-31T05:10:33.845Z,78.61
2022-07-31T05:13:02.744Z,78.96
2022-07-31T05:15:32.528Z,78.96
2022-07-31T05:18:00.567Z,78.62
2022-07-31T05:20:48.683Z,78.48
2022-07-31T05:23:31.833Z,77.56
2022-07-31T05:26:08.343Z,77.37
2022-07-31T05:28:36.645Z,77.26
2022-07-31T05:31:04.566Z,77.07
2022-07-31T05:33:33.877Z,76.35
2022-07-31T05:36:05.967Z,75.63
2022-07-31T05:38:34.216Z,75.45
2022-07-31T05:41:20.897Z,75.37
2022-07-31T05:44:08.158Z,74.85
2022-07-31T05:46:40.246Z,74.36
2022-07-31T05:49:08.769Z,74.06
2022-07-31T05:51:39.183Z,74.19
2022-07-31T05:54:07.187Z,73.66
2022-07-31T05:56:53.895Z,73.51
2022-07-31T05:59:27.811Z,73.34
2022-07-31T06:01:55.864Z,73.64
2022-07-31T06:04:24.968Z,72.98
2022-07-31T06:06:54.302Z,72.25
2022-07-31T06:09:22.312Z,72.28
2022-07-31T06:11:52.083Z,71.92
2022-07-31T06:14:19.980Z,71.25
2022-07-31T06:17:20.202Z,71.85
2022-07-31T06:19:49.362Z,71.68
2022-07-31T06:22:18.659Z,70.73
2022-07-31T06:24:47.056Z,71.28
2022-07-31T06:27:32.410Z,71.38
2022-07-31T06:30:01.662Z,70.35
2022-07-31T06:32:32.180Z,70.43
2022-07-31T06:35:00.975Z,70.65
2022-07-31T06:37:33.283Z,70.79
2022-07-31T06:40:01.346Z,68.89
2022-07-31T06:42:45.225Z,69.08
2022-07-31T06:45:51.611Z,68.52
2022-07-31T06:48:38.296Z,69.43
2022-07-31T06:54:00.349Z,68.05
2022-07-31T06:56:28.519Z,68.47
2022-07-31T06:58:57.132Z,67.74
2022-07-31T07:01:25.180Z,61.48
2022-07-31T07:03:53.537Z,46.57
2022-07-31T07:06:21.659Z,39.65
2022-07-31T07:08:50.304Z,42.99
2022-07-31T07:11:21.711Z,42.38
2022-07-31T07:13:49.896Z,39.90
2022-07-31T07:16:19.970Z,38.89
2022-07-31T07:18:48.508Z,39.55
2022-07-31T07:21:19.422Z,35.25
2022-07-31T07:23:47.704Z,37.28
2022-07-31T07:26:29.213Z,34.22
2022-07-31T07:28:57.658Z,35.41
2022-07-31T07:31:26.499Z,33.13
2022-07-31T07:33:57.803Z,34.91
2022-07-31T07:36:27.286Z,36.16
2022-07-31T07:39:02.273Z,33.82
2022-07-31T07:41:33.775Z,35.49
2022-07-31T07:44:02.465Z,32.52
2022-07-31T07:46:31.599Z,31.11
2022-07-31T07:49:02.699Z,31.00
2022-07-31T07:51:37.036Z,30.17
2022-07-31T07:54:25.164Z,29.38
2022-07-31T07:57:17.848Z,31.96
2022-07-31T07:59:55.379Z,31.23
2022-07-31T08:02:42.760Z,31.13
2022-07-31T08:05:11.543Z,30.99
2022-07-31T08:07:43.025Z,29.01
2022-07-31T08:10:41.294Z,25.03
2022-07-31T08:13:14.673Z,26.33
2022-07-31T08:16:03.190Z,27.85
2022-07-31T08:18:34.588Z,29.02
2022-07-31T08:21:03.330Z,27.72
2022-07-31T08:23:31.324Z,28.59
2022-07-31T08:25:59.460Z,30.43
2022-07-31T08:28:29.638Z,35.95
2022-07-31T08:30:57.866Z,39.92
2022-07-31T08:33:26.626Z,41.90
2022-07-31T08:35:57.054Z,37.47
2022-07-31T08:38:26.028Z,35.73
2022-07-31T08:41:14.228Z,39.53
2022-07-31T08:44:02.930Z,39.49
2022-07-31T08:46:34.137Z,34.64
2022-07-31T08:49:04.449Z,35.04
2022-07-31T08:51:51.262Z,31.70
2022-07-31T08:54:26.319Z,29.74
2022-07-31T08:56:54.935Z,30.36
2022-07-31T08:59:24.217Z,30.27
2022-07-31T09:01:53.138Z,32.40
2022-07-31T09:04:21.299Z,38.83
2022-07-31T09:06:49.301Z,34.05
2022-07-31T09:09:18.683Z,30.25
2022-07-31T09:11:48.576Z,28.45
2022-07-31T09:14:36.729Z,28.38
2022-07-31T09:17:09.464Z,28.13
2022-07-31T09:19:54.001Z,34.96
2022-07-31T09:22:31.672Z,38.76
2022-07-31T09:25:12.438Z,31.80
2022-07-31T09:27:41.579Z,30.34
2022-07-31T09:30:12.380Z,28.49
2022-07-31T09:33:16.641Z,30.00
2022-07-31T09:36:04.797Z,30.72
2022-07-31T09:38:37.357Z,31.24
2022-07-31T09:41:56.546Z,32.53
2022-07-31T09:44:25.365Z,32.58
2022-07-31T09:46:55.978Z,29.68
2022-07-31T09:49:32.515Z,29.57
2022-07-31T09:52:01.779Z,30.31
2022-07-31T09:54:32.093Z,29.73
2022-07-31T09:57:11.030Z,32.46
2022-07-31T09:59:40.693Z,28.15
2022-07-31T10:02:13.349Z,30.29
2022-07-31T10:04:42.585Z,29.14
2022-07-31T10:07:32.585Z,32.64
2022-07-31T10:10:25.293Z,35.85
2022-07-31T10:12:57.664Z,31.96
2022-07-31T10:15:27.519Z,32.00
2022-07-31T10:18:18.716Z,36.71
2022-07-31T10:21:17.578Z,36.96
2022-07-31T10:23:55.712Z,34.75
2022-07-31T10:26:39.154Z,35.47
2022-07-31T10:29:12.306Z,34.65
2022-07-31T10:31:41.018Z,38.54
2022-07-31T10:34:13.575Z,34.37
2022-07-31T10:37:11.189Z,32.70
2022-07-31T10:40:10.546Z,33.42
2022-07-31T10:42:47.217Z,36.02
2022-07-31T10:45:17.805Z,32.28
2022-07-31T10:47:59.949Z,32.84
2022-07-31T10:51:04.315Z,32.62
2022-07-31T10:53:58.720Z,33.71
2022-07-31T10:56:59.135Z,35.32
2022-07-31T10:59:44.893Z,33.62
2022-07-31T11:02:16.009Z,31.82
2022-07-31T11:04:51.047Z,32.78
2022-07-31T11:08:03.888Z,33.56
2022-07-31T11:10:53.434Z,32.52
2022-07-31T11:13:49.800Z,34.00
2022-07-31T11:16:36.369Z,33.18
2022-07-31T11:19:24.756Z,34.15
2022-07-31T11:21:57.352Z,35.66
2022-07-31T11:24:26.720Z,32.37
2022-07-31T11:26:57.346Z,36.74
2022-07-31T11:30:01.031Z,36.92
2022-07-31T11:32:25.234Z,32.25
2022-07-31T11:34:56.783Z,32.02
2022-07-31T11:37:30.683Z,30.34
2022-07-31T11:40:16.299Z,31.13
2022-07-31T11:42:46.435Z,35.17
2022-07-31T11:45:18.830Z,32.00
2022-07-31T11:48:11.096Z,33.51
2022-07-31T11:50:41.293Z,34.00
2022-07-31T11:53:09.293Z,32.49
2022-07-31T11:55:48.698Z,32.23
2022-07-31T11:58:17.931Z,33.63
2022-07-31T12:00:53.494Z,33.95
2022-07-31T12:03:23.417Z,33.77
2022-07-31T12:05:53.416Z,35.06
2022-07-31T12:08:22.775Z,35.32
2022-07-31T12:10:53.639Z,32.47
2022-07-31T12:13:23.143Z,31.14
2022-07-31T12:15:59.917Z,31.88
2022-07-31T12:18:29.810Z,32.78
2022-07-31T12:21:01.526Z,32.16
2022-07-31T12:23:41.826Z,30.95
2022-07-31T12:26:17.169Z,31.26
2022-07-31T12:28:45.180Z,31.98
2022-07-31T12:31:13.685Z,31.31
2022-07-31T12:33:44.465Z,36.46
2022-07-31T12:36:15.347Z,36.71
2022-07-31T12:38:47.969Z,38.33
2022-07-31T12:41:18.367Z,38.37
2022-07-31T12:43:51.050Z,37.92
2022-07-31T12:46:36.704Z,39.14
2022-07-31T12:49:05.445Z,38.61
2022-07-31T12:51:45.330Z,38.27
2022-07-31T12:54:16.521Z,38.71
2022-07-31T12:56:46.916Z,39.85
2022-07-31T12:59:15.329Z,39.20
2022-07-31T13:01:43.347Z,38.40
2022-07-31T13:04:19.223Z,37.90
2022-07-31T13:06:51.365Z,37.64
2022-07-31T13:09:20.430Z,36.71
2022-07-31T13:11:54.500Z,37.54
2022-07-31T13:14:25.697Z,35.02
2022-07-31T13:16:55.278Z,34.92
2022-07-31T13:19:23.293Z,34.02
2022-07-31T13:21:51.406Z,34.22
2022-07-31T13:24:20.197Z,34.67
2022-07-31T13:26:50.253Z,34.55
2022-07-31T13:29:18.919Z,37.40
2022-07-31T13:31:47.952Z,37.62
2022-07-31T13:34:17.033Z,39.71
2022-07-31T13:36:44.942Z,39.24
2022-07-31T13:39:13.182Z,40.45
2022-07-31T13:41:41.811Z,40.86
2022-07-31T13:44:11.297Z,40.85
2022-07-31T13:46:39.210Z,42.31
2022-07-31T13:49:10.372Z,41.28
2022-07-31T13:51:39.614Z,41.75
2022-07-31T13:54:07.743Z,42.66
2022-07-31T13:56:41.881Z,43.01
2022-07-31T13:59:14.050Z,42.48
2022-07-31T14:02:03.444Z,42.95
2022-07-31T14:04:32.907Z,43.79
2022-07-31T14:07:07.638Z,41.83
2022-07-31T14:09:37.631Z,42.53
2022-07-31T14:12:06.496Z,42.49
2022-07-31T14:14:36.023Z,42.96
2022-07-31T14:17:04.113Z,43.78
2022-07-31T14:19:44.059Z,43.29
2022-07-31T14:22:14.163Z,43.09
2022-07-31T14:24:49.408Z,42.98
2022-07-31T14:27:19.885Z,43.22
2022-07-31T14:29:49.439Z,43.54
2022-07-31T14:32:19.431Z,43.92
2022-07-31T14:34:48.595Z,44.71
2022-07-31T14:37:16.578Z,43.21
2022-07-31T14:39:44.767Z,44.53
2022-07-31T14:42:12.859Z,42.73
2022-07-31T14:44:42.498Z,44.10
2022-07-31T14:47:12.814Z,43.72
2022-07-31T14:50:06.851Z,43.57
2022-07-31T14:52:30.275Z,43.68
2022-07-31T14:54:59.037Z,43.54
2022-07-31T14:57:27.164Z,43.42
2022-07-31T14:59:55.609Z,43.04
2022-07-31T15:02:25.020Z,43.83
2022-07-31T15:04:53.622Z,42.67
2022-07-31T15:07:42.367Z,43.86
2022-07-31T15:10:12.175Z,42.38
2022-07-31T15:12:40.265Z,40.66
2022-07-31T15:15:09.548Z,41.18
2022-07-31T15:17:39.159Z,37.61
2022-07-31T15:20:08.331Z,34.00
2022-07-31T15:22:36.713Z,33.74
2022-07-31T15:25:05.047Z,32.09
2022-07-31T15:27:33.095Z,34.02
2022-07-31T15:30:06.765Z,30.61
2022-07-31T15:32:37.401Z,32.59
2022-07-31T15:35:09.268Z,31.36
2022-07-31T15:37:38.306Z,29.26
2022-07-31T15:40:08.707Z,29.88
2022-07-31T15:42:40.824Z,31.13
2022-07-31T15:45:10.468Z,29.63
2022-07-31T15:47:39.384Z,30.55
2022-07-31T15:50:11.405Z,30.01
2022-07-31T15:52:39.605Z,29.83
2022-07-31T15:55:09.048Z,30.82
2022-07-31T15:57:37.687Z,30.29
2022-07-31T16:00:07.635Z,29.53
2022-07-31T16:02:39.464Z,29.77
2022-07-31T16:05:21.643Z,30.38
2022-07-31T16:08:30.275Z,29.56
2022-07-31T16:10:52.611Z,30.72
2022-07-31T16:13:22.088Z,29.52
2022-07-31T16:15:50.007Z,30.16
2022-07-31T16:18:19.785Z,30.27
2022-07-31T16:20:49.267Z,30.00
2022-07-31T16:23:17.513Z,30.97
2022-07-31T16:25:45.549Z,32.42
2022-07-31T16:28:15.162Z,32.09
2022-07-31T16:30:43.819Z,32.56
2022-07-31T16:33:12.663Z,32.92
2022-07-31T16:35:41.336Z,32.40
2022-07-31T16:38:10.624Z,32.60
2022-07-31T16:40:38.672Z,32.71
2022-07-31T16:43:48.048Z,32.56
2022-07-31T16:45:56.940Z,32.62
2022-07-31T16:48:24.880Z,33.14
2022-07-31T16:50:54.448Z,33.35
2022-07-31T16:54:09.915Z,32.30
2022-07-31T16:56:12.715Z,33.38
2022-07-31T16:58:40.898Z,33.52
2022-07-31T17:01:53.941Z,32.68
2022-07-31T17:04:01.228Z,33.55
2022-07-31T17:06:36.074Z,33.43
2022-07-31T17:09:17.171Z,33.82
2022-07-31T17:11:48.302Z,34.82
2022-07-31T17:14:16.824Z,33.72
2022-07-31T17:16:47.621Z,35.46
2022-07-31T17:19:16.751Z,34.20
2022-07-31T17:22:04.833Z,34.99
2022-07-31T17:24:34.786Z,35.10
2022-07-31T17:27:04.738Z,35.09
2022-07-31T17:29:33.052Z,34.84
2022-07-31T17:32:02.484Z,33.35
2022-07-31T17:34:31.460Z,34.72
2022-07-31T17:36:59.491Z,35.34
2022-07-31T17:39:30.803Z,34.45
2022-07-31T17:42:00.558Z,35.65
2022-07-31T17:44:28.627Z,35.83
2022-07-31T17:47:03.657Z,36.67
2022-07-31T17:49:33.570Z,36.66
2022-07-31T17:52:01.445Z,37.05
2022-07-31T17:54:30.345Z,37.10
2022-07-31T17:56:58.407Z,38.65
2022-07-31T17:59:28.103Z,38.59
2022-07-31T18:02:00.086Z,40.79
2022-07-31T18:04:28.900Z,42.71
2022-07-31T18:06:56.753Z,44.89
2022-07-31T18:09:25.197Z,43.92
2022-07-31T18:11:54.354Z,45.80
2022-07-31T18:14:24.573Z,46.66
2022-07-31T18:16:54.879Z,49.06
2022-07-31T18:19:23.175Z,49.27
2022-07-31T18:21:52.133Z,50.53
2022-07-31T18:24:20.656Z,51.00
2022-07-31T18:26:49.341Z,51.70
2022-07-31T18:29:17.758Z,52.02
2022-07-31T18:31:46.839Z,52.91
2022-07-31T18:34:17.157Z,54.51
2022-07-31T18:36:45.522Z,55.32
2022-07-31T18:39:13.498Z,55.69
2022-07-31T18:41:46.899Z,57.00
2022-07-31T18:44:16.531Z,57.84
2022-07-31T18:46:44.448Z,57.85
2022-07-31T18:50:58.462Z,58.54
2022-07-31T18:52:03.434Z,58.54
2022-07-31T18:54:31.836Z,58.13
2022-07-31T18:56:59.725Z,58.37
2022-07-31T18:59:28.004Z,58.33
2022-07-31T19:01:56.757Z,58.39
2022-07-31T19:04:24.884Z,59.38
2022-07-31T19:06:54.488Z,60.73
2022-07-31T19:09:25.310Z,61.07
2022-07-31T19:12:02.641Z,62.01
2022-07-31T19:14:35.612Z,62.33
2022-07-31T19:17:03.964Z,62.11
2022-07-31T19:19:45.001Z,62.72
2022-07-31T19:22:21.040Z,62.76
2022-07-31T19:24:50.824Z,62.75
2022-07-31T19:27:19.636Z,62.59
2022-07-31T19:29:47.502Z,63.52
2022-07-31T19:32:15.981Z,64.08
2022-07-31T19:34:47.842Z,63.87
2022-07-31T19:37:18.225Z,63.28
2022-07-31T19:39:46.705Z,62.30
2022-07-31T19:42:16.054Z,62.32
2022-07-31T19:44:43.891Z,62.33
2022-07-31T19:47:11.724Z,62.54
2022-07-31T19:49:41.261Z,63.65
2022-07-31T19:52:09.360Z,63.89
2022-07-31T19:54:37.576Z,63.44
2022-07-31T19:57:05.669Z,63.52
2022-07-31T19:59:34.805Z,63.84
2022-07-31T20:02:02.883Z,63.72
2022-07-31T20:04:30.938Z,64.22
2022-07-31T20:06:58.952Z,64.45
2022-07-31T20:09:26.825Z,64.95
2022-07-31T20:11:54.648Z,64.79
2022-07-31T20:14:22.573Z,64.39
2022-07-31T20:16:51.704Z,63.88
2022-07-31T20:19:19.565Z,64.44
2022-07-31T20:21:47.385Z,64.22
2022-07-31T20:24:17.696Z,64.78
2022-07-31T20:26:45.760Z,65.08
2022-07-31T20:29:13.584Z,65.01
2022-07-31T20:31:41.406Z,65.03
2022-07-31T20:34:12.474Z,64.87
2022-07-31T20:36:40.724Z,64.87
2022-07-31T20:39:08.683Z,64.78
2022-07-31T20:41:36.994Z,64.48
2022-07-31T20:44:05.409Z,64.42
2022-07-31T20:46:33.311Z,64.98
2022-07-31T20:49:01.443Z,64.90
2022-07-31T20:51:30.854Z,64.46
2022-07-31T20:53:58.751Z,64.74
2022-07-31T20:56:26.580Z,63.93
2022-07-31T20:58:54.908Z,64.08
2022-07-31T21:01:23.106Z,64.42
2022-07-31T21:03:51.217Z,64.74
2022-07-31T21:06:20.960Z,64.82
2022-07-31T21:08:50.477Z,65.25
2022-07-31T21:11:20.166Z,65.12
2022-07-31T21:13:48.034Z,65.00
2022-07-31T21:16:16.442Z,65.07
2022-07-31T21:18:44.393Z,65.16
2022-07-31T21:21:12.356Z,65.70
2022-07-31T21:23:40.224Z,65.13
2022-07-31T21:26:10.058Z,64.98
2022-07-31T21:28:39.563Z,63.50
2022-07-31T21:31:07.904Z,62.56
2022-07-31T21:33:37.445Z,63.74
2022-07-31T21:36:06.864Z,63.89
2022-07-31T21:38:36.605Z,63.26
2022-07-31T21:41:04.828Z,63.32
2022-07-31T21:43:58.990Z,62.54
2022-07-31T21:46:23.274Z,63.23
2022-07-31T21:48:52.904Z,62.55
2022-07-31T21:51:21.193Z,62.82
2022-07-31T21:53:49.108Z,61.57
2022-07-31T21:56:17.172Z,62.58
2022-07-31T21:58:46.380Z,62.08
2022-07-31T22:01:15.344Z,62.17
2022-07-31T22:03:43.552Z,60.50
2022-07-31T22:06:28.953Z,60.33
2022-07-31T22:08:56.832Z,60.81
2022-07-31T22:11:24.720Z,61.19
2022-07-31T22:13:54.016Z,60.56
2022-07-31T22:16:21.928Z,61.09
2022-07-31T22:18:51.369Z,61.58
2022-07-31T22:21:20.099Z,61.88
2022-07-31T22:23:48.588Z,60.59
2022-07-31T22:26:16.762Z,61.64
2022-07-31T22:28:45.359Z,61.89
2022-07-31T22:31:15.066Z,62.52
2022-07-31T22:33:44.082Z,63.53
2022-07-31T22:36:13.592Z,63.46
2022-07-31T22:38:45.299Z,64.47
2022-07-31T22:41:14.104Z,64.11
2022-07-31T22:44:12.552Z,64.28
2022-07-31T22:46:33.179Z,65.48
2022-07-31T22:49:02.751Z,65.37
2022-07-31T22:51:32.092Z,65.89
2022-07-31T22:54:01.872Z,65.21
2022-07-31T22:56:29.821Z,65.30
2022-07-31T22:58:57.749Z,66.33
2022-07-31T23:01:25.638Z,66.31
2022-07-31T23:03:54.823Z,66.24
2022-07-31T23:06:30.924Z,66.17
2022-07-31T23:08:59.884Z,66.93
2022-07-31T23:11:27.769Z,67.12
2022-07-31T23:13:55.772Z,67.39
2022-07-31T23:16:23.718Z,66.88
2022-07-31T23:18:52.246Z,66.56
2022-07-31T23:21:22.217Z,66.23
2022-07-31T23:23:50.286Z,66.88
2022-07-31T23:26:19.067Z,66.21
2022-07-31T23:28:47.532Z,65.74
2022-07-31T23:31:16.039Z,64.73
2022-07-31T23:33:45.172Z,65.05
2022-07-31T23:36:14.244Z,65.85
2022-07-31T23:38:43.832Z,65.59
2022-07-31T23:41:12.714Z,66.25
2022-07-31T23:43:39.920Z,65.01
2022-07-31T23:46:07.841Z,65.92
2022-07-31T23:48:36.002Z,65.37
2022-07-31T23:51:04.226Z,66.30
2022-07-31T23:53:32.099Z,66.68
2022-07-31T23:56:01.380Z,66.32
2022-07-31T23:58:29.293Z,62.29
